Time;durP1;ratioP1;P1;durP2;ratioP2;P2;SDS_P1;SDS_P2;PMS_P1;PMS_P2;Temp;Humidity;BMP_temperature;BMP_pressure;BME280_temperature;BME280_humidity;BME280_pressure;Samples;Min_cycle;Max_cycle;Signal;HPM_P1;HPM_P2
2021/07/13 00:02:09;;;;;;;;;;;;;;;25.36;34.07;100619.34;5029354;28;1043;-68
2021/07/13 00:04:55;;;;;;;;;;;;;;;25.39;32.99;100614.59;5028942;28;1379;-68
2021/07/13 00:07:41;;;;;;;;;;;;;;;25.35;32.73;100625.69;5028753;28;1080;-68
2021/07/13 00:10:30;;;;;;;;;;;;;;;25.28;32.00;100630.69;5028798;28;620;-68
2021/07/13 00:13:16;;;;;;;;;;;;;;;25.35;32.57;100628.34;5028977;28;1910;-68
2021/07/13 00:16:01;;;;;;;;;;;;;;;25.34;32.04;100621.31;5028837;28;1085;-68
2021/07/13 00:18:46;;;;;;;;;;;;;;;25.21;31.03;100624.19;5028574;28;1346;-68
2021/07/13 00:21:32;;;;;;;;;;;;;;;25.24;31.89;100626.59;5028913;28;1131;-68
2021/07/13 00:24:17;;;;;;;;;;;;;;;25.21;30.58;100626.00;5028406;28;1257;-68
2021/07/13 00:27:03;;;;;;;;;;;;;;;25.19;30.41;100623.47;5028715;28;934;-68
2021/07/13 00:29:48;;;;;;;;;;;;;;;25.15;32.13;100626.53;5028855;28;1258;-68
2021/07/13 00:32:34;;;;;;;;;;;;;;;25.22;29.34;100628.53;5028925;28;1084;-68
2021/07/13 00:35:19;;;;;;;;;;;;;;;25.16;30.87;100653.06;5028825;28;570;-68
2021/07/13 00:38:04;;;;;;;;;;;;;;;25.16;30.45;100650.41;5041053;28;1363;-68
2021/07/13 00:40:49;;;;;;;;;;;;;;;25.08;30.09;100644.03;5028250;28;1039;-68
2021/07/13 00:43:35;;;;;;;;;;;;;;;25.00;29.93;100658.84;5028384;28;1264;-68
2021/07/13 00:46:20;;;;;;;;;;;;;;;24.93;29.35;100648.81;5028479;28;1115;-68
2021/07/13 00:49:05;;;;;;;;;;;;;;;24.96;29.41;100643.22;5028362;28;1448;-68
2021/07/13 00:51:51;;;;;;;;;;;;;;;24.97;29.32;100651.09;5028128;28;1594;-67
2021/07/13 00:54:37;;;;;;;;;;;;;;;24.95;29.62;100644.22;5027771;28;1951;-68
2021/07/13 00:57:22;;;;;;;;;;;;;;;24.98;29.27;100636.81;5028252;28;1043;-67
2021/07/13 01:00:10;;;;;;;;;;;;;;;24.98;29.63;100635.97;5027988;28;1472;-67
2021/07/13 01:02:56;;;;;;;;;;;;;;;24.86;28.92;100629.00;5028432;28;1284;-68
2021/07/13 01:05:43;;;;;;;;;;;;;;;24.52;29.21;100632.75;5028048;28;1047;-67
2021/07/13 01:08:36;;;;;;;;;;;;;;;24.66;29.45;100627.13;5027975;28;1371;-68
2021/07/13 01:11:29;;;;;;;;;;;;;;;24.66;29.70;100614.66;5027950;28;1039;-68
2021/07/13 01:14:24;;;;;;;;;;;;;;;24.58;29.27;100614.47;5027744;28;1914;-68
2021/07/13 01:17:13;;;;;;;;;;;;;;;24.60;29.70;100619.66;5028199;28;1175;-69
2021/07/13 01:20:17;;;;;;;;;;;;;;;24.68;29.38;100622.53;5027959;28;1351;-69
2021/07/13 01:23:11;;;;;;;;;;;;;;;24.70;29.73;100633.91;5027904;28;1373;-68
2021/07/13 01:25:59;;;;;;;;;;;;;;;24.48;29.99;100643.66;5027943;28;927;-68
2021/07/13 01:28:46;;;;;;;;;;;;;;;24.56;30.31;100644.88;5028294;28;1268;-68
2021/07/13 01:31:32;;;;;;;;;;;;;;;24.50;30.18;100642.72;5028168;28;1123;-68
2021/07/13 01:34:19;;;;;;;;;;;;;;;24.64;29.68;100634.41;5027852;28;2007;-70
2021/07/13 01:37:06;;;;;;;;;;;;;;;24.58;29.67;100637.59;5030669;28;1054;-68
2021/07/13 01:39:53;;;;;;;;;;;;;;;24.30;29.89;100634.53;5031894;28;1219;-68
2021/07/13 01:42:39;;;;;;;;;;;;;;;24.45;30.07;100637.75;5032082;28;958;-68
2021/07/13 01:45:24;;;;;;;;;;;;;;;24.31;30.03;100630.06;5031994;28;628;-68
2021/07/13 01:48:10;;;;;;;;;;;;;;;24.20;30.05;100636.25;5031939;28;1332;-69
2021/07/13 01:50:56;;;;;;;;;;;;;;;24.19;30.09;100636.38;5031310;28;1313;-68
2021/07/13 01:53:42;;;;;;;;;;;;;;;24.24;30.33;100634.19;5031558;28;1973;-68
2021/07/13 01:56:29;;;;;;;;;;;;;;;24.26;30.16;100641.06;5031707;28;1040;-68
2021/07/13 01:59:17;;;;;;;;;;;;;;;24.21;30.60;100639.75;5031569;28;1327;-68
2021/07/13 02:02:03;;;;;;;;;;;;;;;24.06;30.77;100641.81;5031454;28;1105;-68
2021/07/13 02:04:49;;;;;;;;;;;;;;;24.03;31.01;100650.06;5030960;28;1242;-68
2021/07/13 02:07:41;;;;;;;;;;;;;;;24.22;30.71;100654.78;5031388;28;1047;-66
2021/07/13 02:10:27;;;;;;;;;;;;;;;23.91;31.10;100649.22;5031362;28;708;-69
2021/07/13 02:13:13;;;;;;;;;;;;;;;23.67;31.31;100650.31;5030912;28;1902;-69
2021/07/13 02:15:59;;;;;;;;;;;;;;;23.88;31.38;100636.16;5030839;28;1080;-66
2021/07/13 02:18:45;;;;;;;;;;;;;;;23.95;31.35;100636.53;5030695;28;1364;-67
2021/07/13 02:21:32;;;;;;;;;;;;;;;23.82;31.21;100636.66;5030740;28;1007;-67
2021/07/13 02:24:17;;;;;;;;;;;;;;;23.99;31.86;100632.63;5029487;28;1306;-67
2021/07/13 02:27:04;;;;;;;;;;;;;;;23.93;31.61;100641.97;5030866;28;1054;-67
2021/07/13 02:29:57;;;;;;;;;;;;;;;23.80;31.63;100646.56;5030791;28;1367;-67
2021/07/13 02:33:02;;;;;;;;;;;;;;;23.72;31.94;100643.66;5030860;28;1137;-66
2021/07/13 02:35:49;;;;;;;;;;;;;;;23.89;32.12;100642.34;5030545;28;1035;-66
2021/07/13 02:38:34;;;;;;;;;;;;;;;23.72;32.46;100637.50;5030900;28;1270;-67
2021/07/13 02:41:20;;;;;;;;;;;;;;;23.83;31.94;100643.66;5030584;28;1047;-68
2021/07/13 02:44:05;;;;;;;;;;;;;;;23.67;32.72;100643.19;5030517;28;1237;-68
2021/07/13 02:46:51;;;;;;;;;;;;;;;23.51;32.88;100647.16;5030651;28;1121;-67
2021/07/13 02:49:43;;;;;;;;;;;;;;;23.73;32.20;100647.19;5030055;28;1351;-67
2021/07/13 02:52:30;;;;;;;;;;;;;;;23.51;32.95;100649.84;5030165;28;1640;-68
2021/07/13 02:55:16;;;;;;;;;;;;;;;23.31;33.03;100646.91;5030076;28;1981;-68
2021/07/13 02:58:03;;;;;;;;;;;;;;;23.30;33.22;100647.00;5030353;28;1363;-68
2021/07/13 03:00:49;;;;;;;;;;;;;;;23.60;32.92;100644.66;5030060;28;1138;-67
2021/07/13 03:03:35;;;;;;;;;;;;;;;23.51;33.02;100639.19;5030361;28;1253;-67
2021/07/13 03:06:20;;;;;;;;;;;;;;;23.35;33.46;100635.03;5030037;28;1117;-66
2021/07/13 03:09:06;;;;;;;;;;;;;;;23.54;32.71;100633.63;5030124;28;1185;-67
2021/07/13 03:11:51;;;;;;;;;;;;;;;23.45;33.59;100637.03;5030357;28;1131;-67
2021/07/13 03:14:44;;;;;;;;;;;;;;;23.44;32.91;100641.47;5029879;28;1918;-67
2021/07/13 03:17:29;;;;;;;;;;;;;;;23.32;33.07;100631.78;5029795;28;1097;-67
2021/07/13 03:20:14;;;;;;;;;;;;;;;23.23;33.30;100646.63;5030241;28;706;-67
2021/07/13 03:23:01;;;;;;;;;;;;;;;23.32;33.37;100640.59;5030193;28;1349;-67
2021/07/13 03:25:48;;;;;;;;;;;;;;;23.43;33.05;100623.00;5029761;28;1056;-67
2021/07/13 03:28:34;;;;;;;;;;;;;;;23.41;33.40;100638.25;5029868;28;1345;-67
2021/07/13 03:31:19;;;;;;;;;;;;;;;23.42;33.62;100637.25;5029841;28;1110;-67
2021/07/13 03:34:05;;;;;;;;;;;;;;;23.32;33.11;100637.94;5030030;28;1928;-67
2021/07/13 03:36:51;;;;;;;;;;;;;;;23.47;33.37;100643.91;5030397;28;1052;-67
2021/07/13 03:39:37;;;;;;;;;;;;;;;23.37;33.38;100648.22;5030327;28;1276;-68
2021/07/13 03:42:23;;;;;;;;;;;;;;;23.08;34.64;100658.44;5030732;28;1075;-67
2021/07/13 03:45:10;;;;;;;;;;;;;;;23.22;33.67;100660.88;5029868;28;1378;-67
2021/07/13 03:47:58;;;;;;;;;;;;;;;23.21;33.77;100653.88;5035560;28;1244;-67
2021/07/13 03:50:44;;;;;;;;;;;;;;;22.86;34.23;100668.97;5029689;28;1029;-67
2021/07/13 03:53:29;;;;;;;;;;;;;;;23.12;33.92;100665.22;5029912;28;1985;-67
2021/07/13 03:56:14;;;;;;;;;;;;;;;23.01;34.34;100667.81;5029756;28;1102;-67
2021/07/13 03:59:00;;;;;;;;;;;;;;;22.80;34.45;100674.75;5029308;28;1289;-67
2021/07/13 04:01:46;;;;;;;;;;;;;;;22.95;34.48;100670.94;5029443;28;1127;-67
2021/07/13 04:04:32;;;;;;;;;;;;;;;23.08;33.84;100677.03;5029195;28;1310;-67
2021/07/13 04:07:18;;;;;;;;;;;;;;;23.23;33.92;100681.19;5029548;28;931;-67
2021/07/13 04:10:04;;;;;;;;;;;;;;;22.83;34.62;100677.19;5029071;28;1305;-67
2021/07/13 04:12:50;;;;;;;;;;;;;;;22.98;33.89;100685.84;5029274;28;1358;-66
2021/07/13 04:15:35;;;;;;;;;;;;;;;23.02;34.15;100676.66;5028201;28;1910;-67
2021/07/13 04:18:21;;;;;;;;;;;;;;;22.92;34.42;100673.84;5027908;28;1299;-67
2021/07/13 04:21:06;;;;;;;;;;;;;;;23.03;34.22;100678.34;5027323;28;1150;-67
2021/07/13 04:23:52;;;;;;;;;;;;;;;22.67;34.42;100668.69;5039581;28;1280;-67
2021/07/13 04:26:37;;;;;;;;;;;;;;;22.90;34.59;100665.16;5026880;28;943;-67
2021/07/13 04:29:22;;;;;;;;;;;;;;;22.65;34.80;100670.59;5026640;28;1330;-67
2021/07/13 04:32:08;;;;;;;;;;;;;;;22.89;34.08;100668.75;5026726;28;1060;-67
2021/07/13 04:34:53;;;;;;;;;;;;;;;22.66;35.22;100667.84;5027309;28;1914;-67
2021/07/13 04:37:38;;;;;;;;;;;;;;;22.77;34.59;100677.63;5028740;28;1051;-68
2021/07/13 04:40:27;;;;;;;;;;;;;;;22.61;34.56;100671.75;5028520;28;731;-68
2021/07/13 04:43:13;;;;;;;;;;;;;;;22.78;34.54;100679.34;5028272;28;1307;-68
2021/07/13 04:45:59;;;;;;;;;;;;;;;22.71;35.05;100686.91;5028632;28;1044;-67
2021/07/13 04:48:44;;;;;;;;;;;;;;;22.56;35.17;100687.16;5028237;28;1288;-67
2021/07/13 04:51:29;;;;;;;;;;;;;;;22.16;35.35;100689.25;5028207;28;1451;-67
2021/07/13 04:54:15;;;;;;;;;;;;;;;22.32;35.27;100690.66;5028130;28;1989;-67
2021/07/13 04:57:01;;;;;;;;;;;;;;;22.22;35.73;100688.81;5028469;28;1135;-67
2021/07/13 04:59:46;;;;;;;;;;;;;;;22.45;35.41;100695.94;5028126;28;1260;-67
2021/07/13 05:02:36;;;;;;;;;;;;;;;22.42;35.37;100696.16;5028507;28;924;-67
2021/07/13 05:05:22;;;;;;;;;;;;;;;22.38;35.53;100705.28;5028246;28;660;-67
2021/07/13 05:08:07;;;;;;;;;;;;;;;22.33;35.65;100708.28;5027905;28;1343;-67
2021/07/13 05:10:52;;;;;;;;;;;;;;;22.39;35.48;100709.66;5027947;28;1053;-67
2021/07/13 05:13:38;;;;;;;;;;;;;;;22.45;35.33;100711.84;5027917;28;1349;-67
2021/07/13 05:16:23;;;;;;;;;;;;;;;22.17;35.74;100718.31;5027934;28;1048;-67
2021/07/13 05:19:10;;;;;;;;;;;;;;;22.05;36.34;100707.72;5028077;28;1287;-67
2021/07/13 05:21:56;;;;;;;;;;;;;;;22.06;35.99;100718.25;5028127;28;1049;-69
2021/07/13 05:24:41;;;;;;;;;;;;;;;22.42;36.14;100740.44;5036679;28;1319;-69
2021/07/13 05:27:27;;;;;;;;;;;;;;;22.60;35.99;100749.72;5044516;28;1082;-68
2021/07/13 05:30:12;;;;;;;;;;;;;;;22.68;35.38;100740.25;5044676;28;1138;-68
2021/07/13 05:32:58;;;;;;;;;;;;;;;22.64;37.91;100752.03;5045891;28;1276;-68
2021/07/13 05:35:43;;;;;;;;;;;;;;;22.69;35.59;100735.78;5046325;28;1957;-68
2021/07/13 05:38:28;;;;;;;;;;;;;;;22.73;35.14;100734.63;5044469;28;1318;-69
2021/07/13 05:41:14;;;;;;;;;;;;;;;22.67;35.58;100737.72;5045086;28;1067;-65
2021/07/13 05:44:00;;;;;;;;;;;;;;;22.97;35.14;100739.91;5045524;28;1311;-67
2021/07/13 05:46:45;;;;;;;;;;;;;;;23.17;35.44;100734.78;5046411;28;1100;-67
2021/07/13 05:49:30;;;;;;;;;;;;;;;23.29;35.88;100741.84;5041422;28;1370;-67
2021/07/13 05:52:15;;;;;;;;;;;;;;;23.32;36.11;100743.41;5045064;28;1612;-66
2021/07/13 05:55:02;;;;;;;;;;;;;;;23.38;36.45;100751.75;5045429;28;1991;-67
2021/07/13 05:57:47;;;;;;;;;;;;;;;23.44;36.70;100750.47;5043944;28;1287;-66
2021/07/13 06:00:32;;;;;;;;;;;;;;;23.50;36.88;100738.56;5044268;28;996;-66
2021/07/13 06:03:18;;;;;;;;;;;;;;;23.57;37.04;100753.03;5043964;28;1304;-66
2021/07/13 06:06:03;;;;;;;;;;;;;;;23.60;37.39;100750.16;5045805;28;1142;-65
2021/07/13 06:08:48;;;;;;;;;;;;;;;23.64;37.46;100772.88;5043514;28;1403;-65
2021/07/13 06:11:33;;;;;;;;;;;;;;;23.66;37.74;100771.81;5044248;28;1088;-65
2021/07/13 06:14:18;;;;;;;;;;;;;;;23.71;37.76;100776.78;5044834;28;1898;-66
2021/07/13 06:17:20;;;;;;;;;;;;;;;23.71;37.88;100768.81;5042822;28;1122;-67
2021/07/13 06:20:06;;;;;;;;;;;;;;;23.77;37.99;100773.66;5046253;28;1422;-67
2021/07/13 06:22:52;;;;;;;;;;;;;;;23.81;38.21;100767.09;5042002;28;1306;-67
2021/07/13 06:25:37;;;;;;;;;;;;;;;23.83;38.29;100767.84;5048176;28;1477;-66
2021/07/13 06:28:23;;;;;;;;;;;;;;;23.86;38.37;100772.94;5049068;28;1344;-66
2021/07/13 06:31:08;;;;;;;;;;;;;;;23.89;38.42;100778.00;5046664;28;1129;-65
2021/07/13 06:33:53;;;;;;;;;;;;;;;23.91;38.49;100771.59;5047479;28;1316;-66
2021/07/13 06:36:39;;;;;;;;;;;;;;;23.94;38.86;100767.84;5048426;28;1004;-65
2021/07/13 06:39:24;;;;;;;;;;;;;;;24.01;38.74;100760.25;5048185;28;1314;-66
2021/07/13 06:42:09;;;;;;;;;;;;;;;24.00;39.03;100758.53;5046232;28;1098;-66
2021/07/13 06:44:54;;;;;;;;;;;;;;;24.01;39.20;100763.75;5047409;28;1371;-66
2021/07/13 06:47:39;;;;;;;;;;;;;;;24.02;39.16;100768.09;5047954;28;1138;-66
2021/07/13 06:50:25;;;;;;;;;;;;;;;24.04;39.41;100779.47;5048327;28;1203;-65
2021/07/13 06:53:11;;;;;;;;;;;;;;;24.06;39.49;100782.84;5046689;28;1622;-66
2021/07/13 06:55:56;;;;;;;;;;;;;;;24.09;39.57;100781.75;5047305;28;1894;-67
2021/07/13 06:58:41;;;;;;;;;;;;;;;24.10;39.65;100786.97;5046969;28;1487;-66
2021/07/13 07:01:27;;;;;;;;;;;;;;;24.13;40.01;100791.25;5048378;28;1151;-66
2021/07/13 07:04:12;;;;;;;;;;;;;;;24.14;39.99;100799.09;5046963;28;1331;-65
2021/07/13 07:06:58;;;;;;;;;;;;;;;24.16;39.98;100796.31;5049680;28;1083;-64
2021/07/13 07:09:43;;;;;;;;;;;;;;;24.16;39.83;100794.50;5047568;28;1391;-66
2021/07/13 07:12:29;;;;;;;;;;;;;;;24.18;40.08;100797.88;5048573;28;1528;-65
2021/07/13 07:15:15;;;;;;;;;;;;;;;24.21;40.09;100802.97;5046271;28;1906;-65
2021/07/13 07:18:00;;;;;;;;;;;;;;;24.25;40.26;100807.09;5047610;28;1344;-67
2021/07/13 07:20:45;;;;;;;;;;;;;;;24.26;40.37;100803.44;5047861;28;1054;-66
2021/07/13 07:23:31;;;;;;;;;;;;;;;24.28;40.23;100811.31;5045502;28;1286;-67
2021/07/13 07:26:16;;;;;;;;;;;;;;;24.27;40.47;100802.47;5046116;28;1036;-68
2021/07/13 07:29:01;;;;;;;;;;;;;;;24.33;40.70;100804.66;5046910;28;1403;-69
2021/07/13 07:31:47;;;;;;;;;;;;;;;24.33;39.36;100815.31;5047796;28;1058;-68
2021/07/13 07:34:33;;;;;;;;;;;;;;;24.32;36.74;100810.94;5044052;28;1990;-67
2021/07/13 07:37:18;;;;;;;;;;;;;;;24.26;36.14;100803.44;5047253;28;1050;-68
2021/07/13 07:40:06;;;;;;;;;;;;;;;24.23;36.24;100809.00;5045935;28;1315;-67
2021/07/13 07:42:53;;;;;;;;;;;;;;;24.18;36.26;100807.69;5046477;28;1455;-67
2021/07/13 07:45:38;;;;;;;;;;;;;;;24.19;36.68;100809.38;5045135;28;1005;-69
2021/07/13 07:48:24;;;;;;;;;;;;;;;24.18;35.38;100811.19;5045819;28;1403;-69
2021/07/13 07:51:10;;;;;;;;;;;;;;;24.18;35.27;100805.88;5043613;28;1231;-69
2021/07/13 07:53:55;;;;;;;;;;;;;;;24.11;35.56;100803.78;5046933;28;1307;-69
2021/07/13 07:56:40;;;;;;;;;;;;;;;24.19;35.61;100806.72;5044599;28;1906;-66
2021/07/13 07:59:25;;;;;;;;;;;;;;;24.20;35.78;100797.75;5044986;28;1418;-70
2021/07/13 08:02:11;;;;;;;;;;;;;;;24.25;35.63;100799.09;5040760;28;1170;-70
2021/07/13 08:04:56;;;;;;;;;;;;;;;24.26;35.26;100799.94;5044377;28;1327;-67
2021/07/13 08:07:42;;;;;;;;;;;;;;;24.32;36.64;100810.94;5045160;28;1063;-69
2021/07/13 08:10:28;;;;;;;;;;;;;;;24.27;35.16;100802.47;5046238;28;909;-71
2021/07/13 08:13:13;;;;;;;;;;;;;;;24.31;35.89;100811.94;5048561;28;1275;-64
2021/07/13 08:15:58;;;;;;;;;;;;;;;24.38;36.24;100813.13;5048492;28;1965;-63
2021/07/13 08:18:44;;;;;;;;;;;;;;;24.32;35.01;100808.28;5048576;28;1358;-63
2021/07/13 08:21:49;;;;;;;;;;;;;;;24.30;35.13;100820.03;5048768;28;1166;-65
2021/07/13 08:24:35;;;;;;;;;;;;;;;24.33;35.85;100819.78;5047495;28;1381;-65
2021/07/13 08:27:20;;;;;;;;;;;;;;;24.32;35.23;100818.91;5048287;28;1080;-64
2021/07/13 08:30:06;;;;;;;;;;;;;;;24.30;35.15;100814.69;5048417;28;1378;-65
2021/07/13 08:32:51;;;;;;;;;;;;;;;24.31;34.89;100816.41;5048646;28;1227;-66
2021/07/13 08:35:36;;;;;;;;;;;;;;;24.38;35.54;100821.09;5048312;28;1977;-68
2021/07/13 08:38:21;;;;;;;;;;;;;;;24.33;35.31;100822.44;5046431;28;1658;-65
2021/07/13 08:41:07;;;;;;;;;;;;;;;24.36;35.28;100820.38;5059297;28;1149;-65
2021/07/13 08:43:53;;;;;;;;;;;;;;;24.47;36.07;100822.19;5027080;28;1288;-67
2021/07/13 08:46:39;;;;;;;;;;;;;;;24.48;37.19;100814.09;5026000;28;1039;-66
2021/07/13 08:49:24;;;;;;;;;;;;;;;24.60;37.54;100822.03;5026237;28;1262;-65
2021/07/13 08:52:10;;;;;;;;;;;;;;;24.62;37.87;100820.97;5026070;28;1595;-69
2021/07/13 08:54:55;;;;;;;;;;;;;;;24.58;36.27;100813.34;5026180;28;1975;-69
2021/07/13 08:57:41;;;;;;;;;;;;;;;24.58;36.76;100824.00;5026615;28;928;-69
2021/07/13 09:00:27;;;;;;;;;;;;;;;24.57;37.59;100822.28;5026174;28;703;-69
2021/07/13 09:03:14;;;;;;;;;;;;;;;24.56;38.06;100809.97;5027489;28;1389;-69
2021/07/13 09:06:01;;;;;;;;;;;;;;;24.56;38.33;100812.63;5027811;28;1142;-69
2021/07/13 09:08:47;;;;;;;;;;;;;;;24.58;38.60;100816.00;5026274;28;1249;-69
2021/07/13 09:11:32;;;;;;;;;;;;;;;24.57;38.77;100811.63;5027847;28;1073;-70
2021/07/13 09:14:17;;;;;;;;;;;;;;;24.58;38.87;100813.34;5028090;28;1260;-69
2021/07/13 09:17:03;;;;;;;;;;;;;;;24.58;38.88;100816.00;5028297;28;1922;-69
2021/07/13 09:19:58;;;;;;;;;;;;;;;24.59;38.98;100818.56;5027649;28;1259;-69
2021/07/13 09:22:53;;;;;;;;;;;;;;;24.59;39.14;100820.38;5028278;28;1323;-69
2021/07/13 09:25:40;;;;;;;;;;;;;;;24.60;39.18;100827.38;5026324;28;999;-69
2021/07/13 09:28:26;;;;;;;;;;;;;;;24.60;39.09;100814.06;5027490;28;1152;-69
2021/07/13 09:31:16;;;;;;;;;;;;;;;24.60;38.98;100816.72;5027661;28;993;-69
2021/07/13 09:34:02;;;;;;;;;;;;;;;24.61;39.01;100808.63;5027829;28;1248;-69
2021/07/13 09:36:54;;;;;;;;;;;;;;;24.62;39.43;100810.34;5027778;28;1902;-69
2021/07/13 09:39:40;;;;;;;;;;;;;;;24.63;39.10;100811.16;5026542;28;1300;-69
2021/07/13 09:42:26;;;;;;;;;;;;;;;24.64;39.15;100818.19;5027736;28;1178;-69
2021/07/13 09:45:17;;;;;;;;;;;;;;;24.65;39.64;100822.53;5027535;28;703;-69
2021/07/13 09:48:09;;;;;;;;;;;;;;;24.64;39.49;100810.19;5028067;28;1257;-69
2021/07/13 09:50:57;;;;;;;;;;;;;;;24.63;39.27;100811.16;5027490;28;1473;-69
2021/07/13 09:53:43;;;;;;;;;;;;;;;24.66;39.84;100818.88;5027472;28;1232;-69
2021/07/13 09:56:38;;;;;;;;;;;;;;;24.66;39.48;100818.88;5027803;28;1955;-70
2021/07/13 09:59:24;;;;;;;;;;;;;;;24.67;40.00;100815.28;5031420;28;1363;-69
2021/07/13 10:02:10;;;;;;;;;;;;;;;24.68;39.61;100812.50;5031826;28;1054;-69
2021/07/13 10:04:56;;;;;;;;;;;;;;;24.67;40.00;100813.47;5031152;28;1358;-69
2021/07/13 10:07:43;;;;;;;;;;;;;;;24.68;39.91;100808.97;5031350;28;1180;-70
2021/07/13 10:10:28;;;;;;;;;;;;;;;24.70;39.95;100809.69;5031298;28;679;-70
2021/07/13 10:13:18;;;;;;;;;;;;;;;24.70;39.67;100810.53;5031026;28;1265;-70
2021/07/13 10:16:05;;;;;;;;;;;;;;;24.71;40.24;100811.41;5031237;28;1965;-69
2021/07/13 10:18:50;;;;;;;;;;;;;;;24.70;39.89;100813.22;5030654;28;1224;-70
2021/07/13 10:21:37;;;;;;;;;;;;;;;24.70;40.04;100809.69;5030835;28;923;-69
2021/07/13 10:24:24;;;;;;;;;;;;;;;24.72;39.92;100805.06;5031028;28;1292;-69
2021/07/13 10:27:24;;;;;;;;;;;;;;;24.72;40.17;100799.75;5030687;28;930;-70
2021/07/13 10:30:15;;;;;;;;;;;;;;;24.72;40.14;100794.41;5030394;28;1363;-69
2021/07/13 10:33:00;;;;;;;;;;;;;;;24.73;40.10;100793.47;5030943;28;1253;-70
2021/07/13 10:35:45;;;;;;;;;;;;;;;24.74;40.16;100797.81;5030436;28;1913;-69
2021/07/13 10:38:30;;;;;;;;;;;;;;;24.75;40.34;100804.81;5030333;28;1389;-70
2021/07/13 10:41:29;;;;;;;;;;;;;;;24.73;40.04;100799.66;5030586;28;1135;-69
2021/07/13 10:44:35;;;;;;;;;;;;;;;24.75;40.33;100804.81;5030116;28;1300;-69
2021/07/13 10:47:25;;;;;;;;;;;;;;;24.79;40.36;100800.97;5034480;28;1730;-68
2021/07/13 10:50:17;;;;;;;;;;;;;;;24.82;39.66;100806.06;5040496;28;1265;-71
2021/07/13 10:53:02;;;;;;;;;;;;;;;24.86;40.12;100802.19;5048824;28;1431;-68
2021/07/13 10:55:51;;;;;;;;;;;;;;;24.85;40.34;100806.66;5049147;28;1978;-71
2021/07/13 10:58:45;;;;;;;;;;;;;;;24.89;40.11;100807.28;5048568;28;1276;-71
2021/07/13 11:01:34;;;;;;;;;;;;;;;24.94;40.35;100810.38;5047606;28;1051;-71
2021/07/13 11:04:24;;;;;;;;;;;;;;;24.90;39.20;100803.59;5048393;28;1374;-71
2021/07/13 11:07:09;;;;;;;;;;;;;;;24.88;39.58;100806.41;5047369;28;1185;-71
2021/07/13 11:10:15;;;;;;;;;;;;;;;24.88;39.77;100802.91;5047809;28;1288;-68
2021/07/13 11:13:00;;;;;;;;;;;;;;;24.87;40.34;100811.84;5049016;28;1157;-69
2021/07/13 11:15:47;;;;;;;;;;;;;;;24.92;38.91;100807.88;5048424;28;1923;-70
2021/07/13 11:18:33;;;;;;;;;;;;;;;24.91;38.92;100806.16;5048750;28;1431;-68
2021/07/13 11:21:19;;;;;;;;;;;;;;;24.93;38.57;100798.88;5048680;28;1158;-68
2021/07/13 11:24:05;;;;;;;;;;;;;;;24.95;38.14;100796.97;5048447;28;1231;-67
2021/07/13 11:26:52;;;;;;;;;;;;;;;24.93;37.94;100803.34;5048727;28;1052;-67
2021/07/13 11:29:48;;;;;;;;;;;;;;;24.94;37.94;100805.06;5061127;28;1384;-71
2021/07/13 11:32:33;;;;;;;;;;;;;;;24.97;39.04;100799.47;5048414;28;1129;-70
2021/07/13 11:35:19;;;;;;;;;;;;;;;24.95;38.84;100790.78;5048385;28;1906;-71
2021/07/13 11:38:07;;;;;;;;;;;;;;;24.99;38.79;100785.06;5047485;28;1324;-71
2021/07/13 11:41:09;;;;;;;;;;;;;;;25.04;39.02;100789.16;5048514;28;1081;-69
2021/07/13 11:43:59;;;;;;;;;;;;;;;25.01;38.86;100787.59;5060844;28;1303;-70
2021/07/13 11:46:46;;;;;;;;;;;;;;;24.99;39.03;100781.53;5048053;28;953;-70
2021/07/13 11:49:34;;;;;;;;;;;;;;;25.00;39.35;100780.56;5048192;28;1256;-71
2021/07/13 11:52:19;;;;;;;;;;;;;;;24.98;38.39;100779.88;5046351;28;1494;-69
2021/07/13 11:55:07;;;;;;;;;;;;;;;24.97;39.61;100784.34;5047771;28;1410;-68
2021/07/13 11:57:53;;;;;;;;;;;;;;;24.97;38.89;100762.19;5047775;28;1382;-70
2021/07/13 12:00:42;;;;;;;;;;;;;;;25.00;39.06;100769.91;5048121;28;1119;-70
2021/07/13 12:03:28;;;;;;;;;;;;;;;25.03;39.68;100775.00;5047616;28;1279;-70
2021/07/13 12:06:15;;;;;;;;;;;;;;;25.09;38.59;100773.63;5047693;28;1131;-72
2021/07/13 12:09:02;;;;;;;;;;;;;;;25.05;38.93;100773.03;5047247;28;1379;-70
2021/07/13 12:11:47;;;;;;;;;;;;;;;25.05;39.49;100765.03;5047838;28;1092;-70
2021/07/13 12:14:34;;;;;;;;;;;;;;;25.09;38.81;100755.81;5047252;28;1409;-68
2021/07/13 12:17:23;;;;;;;;;;;;;;;25.13;37.80;100762.59;5047550;28;1973;-66
2021/07/13 12:20:09;;;;;;;;;;;;;;;25.15;38.94;100757.97;5046275;28;1321;-67
2021/07/13 12:22:55;;;;;;;;;;;;;;;25.14;38.81;100764.28;5046031;28;1553;-67
2021/07/13 12:25:40;;;;;;;;;;;;;;;25.16;37.67;100759.69;5046796;28;1490;-68
2021/07/13 12:28:26;;;;;;;;;;;;;;;25.18;38.05;100765.72;5046416;28;1232;-67
2021/07/13 12:31:11;;;;;;;;;;;;;;;25.20;37.85;100770.94;5046626;28;1111;-71
2021/07/13 12:33:57;;;;;;;;;;;;;;;25.18;37.01;100764.88;5046454;28;1232;-72
2021/07/13 12:36:43;;;;;;;;;;;;;;;25.21;37.58;100764.63;5046884;28;1967;-70
2021/07/13 12:39:29;;;;;;;;;;;;;;;25.20;37.45;100761.09;5046678;28;1355;-73
2021/07/13 12:42:21;;;;;;;;;;;;;;;25.17;37.10;100753.34;5047381;28;937;-71
2021/07/13 12:45:10;;;;;;;;;;;;;;;25.19;36.32;100751.44;5045728;28;1854;-67
2021/07/13 12:47:56;;;;;;;;;;;;;;;25.21;36.65;100748.63;5043621;28;1546;-66
2021/07/13 12:50:46;;;;;;;;;;;;;;;25.24;36.77;100743.88;5033918;28;1684;-66
2021/07/13 12:53:32;;;;;;;;;;;;;;;25.22;37.79;100747.66;5027875;28;1747;-66
2021/07/13 12:56:17;;;;;;;;;;;;;;;25.23;37.36;100750.19;5046248;28;1990;-67
2021/07/13 12:59:05;;;;;;;;;;;;;;;25.24;37.62;100740.38;5046758;28;1384;-65
2021/07/13 13:01:51;;;;;;;;;;;;;;;25.24;37.06;100749.22;5046697;28;938;-70
2021/07/13 13:04:42;;;;;;;;;;;;;;;25.29;38.70;100746.16;5026970;28;1390;-72
2021/07/13 13:07:27;;;;;;;;;;;;;;;25.36;38.60;100753.50;5026499;28;1061;-71
2021/07/13 13:10:25;;;;;;;;;;;;;;;25.34;39.66;100752.81;5026255;28;648;-71
2021/07/13 13:13:10;;;;;;;;;;;;;;;25.33;38.72;100743.09;5026533;28;1371;-69
2021/07/13 13:15:56;;;;;;;;;;;;;;;25.37;39.51;100749.03;5026051;28;1906;-70
2021/07/13 13:18:41;;;;;;;;;;;;;;;25.40;39.61;100754.94;5026126;28;1309;-69
2021/07/13 13:21:28;;;;;;;;;;;;;;;25.44;39.88;100756.34;5035357;28;1524;-68
2021/07/13 13:24:15;;;;;;;;;;;;;;;25.45;39.92;100763.41;5027563;28;1300;-69
2021/07/13 13:27:00;;;;;;;;;;;;;;;25.43;40.21;100756.50;5028216;28;1073;-69
2021/07/13 13:29:46;;;;;;;;;;;;;;;25.46;40.37;100759.75;5030143;28;1719;-72
2021/07/13 13:32:31;;;;;;;;;;;;;;;25.45;41.17;100758.06;5028931;28;1037;-71
2021/07/13 13:38:37;;;;;;;;;;;;;;;25.45;40.60;100751.88;5022922;28;1256;-71
2021/07/13 13:41:24;;;;;;;;;;;;;;;25.49;40.62;100754.19;5032064;28;1789;-71
2021/07/13 13:44:09;;;;;;;;;;;;;;;25.48;40.95;100749.84;5030153;28;1530;-68
2021/07/13 13:46:55;;;;;;;;;;;;;;;25.43;41.12;100751.16;5030208;28;1751;-68
2021/07/13 13:49:41;;;;;;;;;;;;;;;25.40;41.45;100752.28;5030655;28;1653;-68
2021/07/13 13:52:26;;;;;;;;;;;;;;;25.39;41.46;100755.91;5030359;28;1682;-71
2021/07/13 13:55:12;;;;;;;;;;;;;;;25.40;41.64;100746.09;5030281;28;648;-72
2021/07/13 13:57:57;;;;;;;;;;;;;;;25.39;42.20;100750.59;5030306;28;1973;-70
2021/07/13 14:00:42;;;;;;;;;;;;;;;25.38;42.11;100751.53;5028775;28;1066;-69
2021/07/13 14:03:28;;;;;;;;;;;;;;;25.39;42.24;100742.59;5030024;28;1333;-69
2021/07/13 14:06:14;;;;;;;;;;;;;;;25.40;42.43;100744.28;5030524;28;1023;-68
2021/07/13 14:09:01;;;;;;;;;;;;;;;25.43;43.00;100748.50;5030151;28;1288;-69
2021/07/13 14:11:47;;;;;;;;;;;;;;;25.40;42.76;100749.63;5029970;28;1052;-67
2021/07/13 14:14:33;;;;;;;;;;;;;;;25.38;43.04;100748.88;5029848;28;1304;-68
2021/07/13 14:17:18;;;;;;;;;;;;;;;25.38;43.20;100745.41;5047183;28;1910;-69
2021/07/13 14:20:06;;;;;;;;;;;;;;;25.38;43.30;100751.53;5049501;28;1481;-69
2021/07/13 14:22:51;;;;;;;;;;;;;;;25.38;43.65;100746.22;5048411;28;1276;-69
2021/07/13 14:25:37;;;;;;;;;;;;;;;25.39;43.53;100734.59;5049414;28;979;-68
2021/07/13 14:28:22;;;;;;;;;;;;;;;25.40;43.68;100730.94;5050036;28;1300;-69
2021/07/13 14:31:07;;;;;;;;;;;;;;;25.41;44.00;100723.81;5049328;28;1436;-71
2021/07/13 14:33:53;;;;;;;;;;;;;;;25.39;43.83;100737.25;5041997;28;1300;-68